Time;durP1;ratioP1;P1;durP2;ratioP2;P2;SDS_P1;SDS_P2;PMS_P1;PMS_P2;Temp;Humidity;BMP_temperature;BMP_pressure;BME280_temperature;BME280_humidity;BME280_pressure;Samples;Min_cycle;Max_cycle;Signal;HPM_P1;HPM_P2
2021/07/10 00:01:28;;;;;;;16.77;9.90;;;;;;;17.43;87.12;100620.05;1718488;83;20998;-81
2021/07/10 00:03:58;;;;;;;10.72;6.25;;;;;;;17.43;87.19;100620.05;1718763;83;21042;-80
2021/07/10 00:06:25;;;;;;;14.55;9.10;;;;;;;17.42;86.98;100614.36;1718462;83;21033;-81
2021/07/10 00:08:53;;;;;;;15.85;9.23;;;;;;;17.40;87.02;100614.44;1718456;83;21057;-80
2021/07/10 00:11:20;;;;;;;11.83;8.03;;;;;;;17.37;86.55;100611.48;1718415;83;21104;-80
2021/07/10 00:13:48;;;;;;;15.88;9.33;;;;;;;17.39;86.20;100613.58;1718303;83;21072;-79
2021/07/10 00:16:17;;;;;;;16.37;9.80;;;;;;;17.41;85.36;100613.47;1718452;83;21495;-82
2021/07/10 00:18:43;;;;;;;16.05;9.70;;;;;;;17.41;85.74;100608.15;1718259;83;21010;-81
2021/07/10 00:21:10;;;;;;;14.95;9.13;;;;;;;17.40;85.99;100604.63;1718587;82;21009;-82
2021/07/10 00:23:39;;;;;;;15.70;9.03;;;;;;;17.38;86.40;100610.52;1717923;83;21060;-82
2021/07/10 00:26:06;;;;;;;17.27;9.30;;;;;;;17.37;86.64;100611.48;1718608;83;21623;-83
2021/07/10 00:28:33;;;;;;;17.00;10.23;;;;;;;17.36;86.38;100612.41;1717988;83;21129;-82
2021/07/10 00:31:00;;;;;;;14.38;9.40;;;;;;;17.34;86.39;100606.31;1718158;83;21348;-82
2021/07/10 00:33:27;;;;;;;14.87;9.00;;;;;;;17.31;86.87;100598.52;1718005;83;21587;-80
2021/07/10 00:35:54;;;;;;;14.80;9.48;;;;;;;17.27;87.17;100602.29;1713889;83;21097;-79
2021/07/10 00:38:21;;;;;;;17.55;9.93;;;;;;;17.23;87.52;100594.56;1704425;84;21054;-81
2021/07/10 00:40:50;;;;;;;16.87;8.55;;;;;;;17.16;87.82;100590.95;1704598;84;21030;-80
2021/07/10 00:43:17;;;;;;;12.07;8.90;;;;;;;17.12;87.93;100595.20;1704821;84;21078;-82
2021/07/10 00:45:47;;;;;;;13.03;8.58;;;;;;;17.07;88.14;100599.91;1705106;84;21055;-81
2021/07/10 00:48:24;;;;;;;12.35;9.08;;;;;;;17.04;88.32;100600.09;1682086;80;21042;-82
2021/07/10 00:51:04;;;;;;;14.98;9.65;;;;;;;17.01;88.49;100596.28;1678811;84;21093;-84
2021/07/10 00:53:32;;;;;;;19.12;10.58;;;;;;;16.97;88.62;100593.77;1661577;85;21090;-81
2021/07/10 00:56:03;;;;;;;18.05;9.70;;;;;;;16.94;88.81;100588.63;1678734;84;21156;-82
2021/07/10 00:58:32;;;;;;;16.85;9.45;;;;;;;16.90;88.86;100585.75;1677856;85;21633;-84
2021/07/10 01:01:00;;;;;;;17.00;9.55;;;;;;;16.87;89.27;100586.41;1651930;85;21088;-83
2021/07/10 01:03:27;;;;;;;16.70;10.15;;;;;;;16.85;89.54;100593.14;1651766;85;21589;-81
2021/07/10 01:05:54;;;;;;;17.32;9.88;;;;;;;16.81;89.81;100580.95;1671110;85;21269;-81
2021/07/10 01:08:21;;;;;;;15.53;10.45;;;;;;;16.78;90.08;100578.44;1673636;85;21027;-84
2021/07/10 01:10:50;;;;;;;24.50;10.45;;;;;;;16.77;90.31;100579.36;1669451;85;21076;-84
2021/07/10 01:13:18;;;;;;;20.70;9.48;;;;;;;16.76;90.40;100584.31;1665875;86;21103;-83
2021/07/10 01:15:47;;;;;;;13.30;6.50;;;;;;;16.72;90.33;100585.41;1649169;85;21181;-85
2021/07/10 01:18:14;;;;;;;13.40;9.48;;;;;;;16.72;90.31;100589.41;1666153;86;21484;-87
2021/07/10 01:20:52;;;;;;;16.77;10.10;;;;;;;16.72;89.93;100581.42;1666948;86;21570;-88
2021/07/10 01:23:20;;;;;;;12.23;7.65;;;;;;;16.71;89.96;100575.73;1667224;86;21594;-89
2021/07/10 01:25:47;;;;;;;13.10;8.10;;;;;;;16.71;90.18;100575.73;1667492;86;21527;-86
2021/07/10 01:28:15;;;;;;;13.18;9.13;;;;;;;16.70;89.46;100572.67;1666952;86;21711;-89
2021/07/10 01:30:42;;;;;;;14.45;9.65;;;;;;;16.70;89.29;100570.89;1666267;86;21127;-87
2021/07/10 01:33:13;;;;;;;17.20;9.85;;;;;;;16.72;89.23;100572.12;1666254;86;21043;-84
2021/07/10 01:35:40;;;;;;;15.65;9.35;;;;;;;16.74;89.64;100570.23;1666355;85;22208;-86
2021/07/10 01:38:11;;;;;;;15.78;9.28;;;;;;;16.72;89.28;100568.98;1666129;86;21048;-86
2021/07/10 01:40:38;;;;;;;16.37;9.33;;;;;;;16.71;89.62;100563.77;1666313;86;21626;-89
2021/07/10 01:43:05;;;;;;;18.98;10.03;;;;;;;16.72;90.00;100573.45;1666192;84;21073;-86
2021/07/10 01:45:35;;;;;;;18.65;10.45;;;;;;;16.73;90.21;100569.86;1669024;84;21603;-86
2021/07/10 01:48:05;;;;;;;14.93;9.15;;;;;;;16.71;90.35;100573.92;1650689;85;21085;-85
2021/07/10 01:50:32;;;;;;;20.12;9.95;;;;;;;16.69;90.05;100566.98;1643861;87;21936;-89
2021/07/10 01:53:01;;;;;;;12.45;9.03;;;;;;;16.69;90.30;100565.65;1630682;88;21056;-84
2021/07/10 01:55:28;;;;;;;13.83;9.10;;;;;;;16.68;90.50;100562.59;1643275;87;21969;-83
2021/07/10 01:57:57;;;;;;;19.48;10.05;;;;;;;16.67;90.73;100567.53;1643331;87;21068;-86
2021/07/10 02:00:27;;;;;;;14.83;10.38;;;;;;;16.66;90.94;100568.49;1629833;88;21141;-85
2021/07/10 02:02:55;;;;;;;13.30;8.75;;;;;;;16.63;91.14;100560.66;1643533;87;21124;-86
2021/07/10 02:05:24;;;;;;;17.05;9.45;;;;;;;16.62;91.34;100558.96;1658199;86;21069;-85
2021/07/10 02:07:53;;;;;;;14.85;9.68;;;;;;;16.63;91.42;100556.67;1658905;86;21092;-86
2021/07/10 02:10:21;;;;;;;15.50;9.93;;;;;;;16.64;90.73;100557.08;1644306;87;21076;-87
2021/07/10 02:12:51;;;;;;;12.85;9.30;;;;;;;16.65;90.33;100562.28;1658042;86;21128;-84
2021/07/10 02:15:18;;;;;;;19.48;10.15;;;;;;;16.66;89.65;100563.17;1657904;86;21153;-84
2021/07/10 02:17:45;;;;;;;14.98;9.90;;;;;;;16.70;89.64;100558.05;1643472;87;21379;-83
2021/07/10 02:20:17;;;;;;;13.38;9.78;;;;;;;16.74;90.22;100560.92;1657677;86;22090;-80
2021/07/10 02:22:44;;;;;;;16.70;9.78;;;;;;;16.73;90.48;100556.56;1657952;86;21117;-79
2021/07/10 02:25:15;;;;;;;17.37;9.78;;;;;;;16.75;89.62;100556.01;1642926;87;21044;-78
2021/07/10 02:27:42;;;;;;;16.82;8.53;;;;;;;16.76;89.23;100563.88;1657600;86;21120;-79
2021/07/10 02:30:16;;;;;;;12.58;8.58;;;;;;;16.80;89.08;100560.62;1655872;86;21572;-80
2021/07/10 02:32:45;;;;;;;13.00;8.93;;;;;;;16.83;89.72;100559.11;1652669;86;21128;-78
2021/07/10 02:35:12;;;;;;;10.58;8.08;;;;;;;16.85;90.17;100555.90;1652337;86;21749;-79
2021/07/10 02:37:40;;;;;;;18.98;9.08;;;;;;;16.88;90.19;100552.20;1653015;86;21335;-81
2021/07/10 02:40:09;;;;;;;15.90;7.95;;;;;;;16.91;90.10;100555.56;1653243;86;21020;-81
2021/07/10 02:42:36;;;;;;;11.18;6.85;;;;;;;16.95;90.08;100555.75;1653068;86;21120;-82
2021/07/10 02:45:06;;;;;;;15.43;9.30;;;;;;;16.98;89.67;100555.59;1652762;86;21095;-81
2021/07/10 02:47:33;;;;;;;15.18;9.03;;;;;;;17.05;89.74;100551.27;1652913;86;21840;-90
2021/07/10 02:50:00;;;;;;;17.70;8.98;;;;;;;17.12;89.70;100555.28;1648575;87;21144;-89
2021/07/10 02:52:27;;;;;;;13.38;9.40;;;;;;;17.18;89.96;100555.80;1648874;87;21087;-88
2021/07/10 02:54:54;;;;;;;15.63;9.18;;;;;;;17.26;89.49;100558.00;1648750;87;21508;-90
2021/07/10 02:57:23;;;;;;;14.75;9.50;;;;;;;17.36;88.60;100555.17;1648698;87;21597;-83
2021/07/10 02:59:49;;;;;;;13.15;8.78;;;;;;;17.46;88.75;100546.64;1650310;86;21075;-83
2021/07/10 03:02:16;;;;;;;11.95;9.00;;;;;;;17.56;88.47;100550.02;1652469;86;21062;-82
2021/07/10 03:04:45;;;;;;;14.23;9.03;;;;;;;17.65;88.61;100540.62;1652589;86;21072;-84
2021/07/10 03:07:12;;;;;;;14.53;8.50;;;;;;;17.76;88.49;100546.16;1652924;86;21057;-82
2021/07/10 03:09:39;;;;;;;13.15;8.20;;;;;;;17.87;87.67;100542.86;1652569;86;21201;-84
2021/07/10 03:12:07;;;;;;;15.80;8.33;;;;;;;17.98;87.13;100548.39;1652658;86;21491;-83
2021/07/10 03:14:34;;;;;;;12.05;8.98;;;;;;;18.11;86.56;100545.84;1652743;86;21121;-82
2021/07/10 03:17:01;;;;;;;12.28;8.15;;;;;;;18.26;86.01;100553.35;1653249;86;21121;-82
2021/07/10 03:19:28;;;;;;;12.78;7.72;;;;;;;18.41;86.08;100544.89;1652856;86;21046;-82
2021/07/10 03:21:57;;;;;;;10.45;7.65;;;;;;;18.54;85.30;100541.83;1652803;86;21131;-83
2021/07/10 03:24:25;;;;;;;15.10;7.40;;;;;;;18.70;85.15;100550.16;1652357;86;21101;-82
2021/07/10 03:26:52;;;;;;;8.13;5.95;;;;;;;18.84;84.59;100544.81;1652455;86;21647;-80
2021/07/10 03:29:20;;;;;;;8.85;6.10;;;;;;;19.01;82.88;100547.25;1652419;86;21081;-81
2021/07/10 03:31:47;;;;;;;12.15;7.03;;;;;;;19.19;80.93;100543.86;1652809;86;21096;-82
2021/07/10 03:34:13;;;;;;;9.98;7.45;;;;;;;19.39;81.05;100538.49;1652488;86;21607;-82
2021/07/10 03:36:40;;;;;;;14.15;7.80;;;;;;;19.60;80.19;100538.00;1653001;86;21049;-80
2021/07/10 03:39:07;;;;;;;12.60;8.18;;;;;;;19.81;80.62;100536.58;1652471;86;21575;-85
2021/07/10 03:41:34;;;;;;;10.35;8.15;;;;;;;20.02;79.09;100540.06;1652519;86;21145;-77
2021/07/10 03:44:01;;;;;;;12.10;7.72;;;;;;;20.20;78.63;100534.75;1644413;86;21046;-83
2021/07/10 03:46:28;;;;;;;12.63;8.30;;;;;;;20.40;77.58;100540.48;1636547;87;21207;-81
2021/07/10 03:51:24;;;;;;;15.35;9.25;;;;;;;20.88;76.60;100529.89;1839437;77;22819;-82
2021/07/10 03:53:51;;;;;;;18.32;9.63;;;;;;;21.09;75.55;100530.96;1825776;78;21091;-82
2021/07/10 03:56:19;;;;;;;18.95;9.93;;;;;;;21.36;74.52;100526.70;1828488;78;21811;-84
2021/07/10 03:58:47;;;;;;;18.75;8.38;;;;;;;21.65;73.52;100524.13;1828657;78;20924;-82
2021/07/10 04:01:14;;;;;;;12.37;7.35;;;;;;;21.94;71.57;100517.35;1828370;78;21546;-82
2021/07/10 04:03:41;;;;;;;14.73;7.83;;;;;;;22.23;70.22;100510.71;1818045;78;21047;-81
2021/07/10 04:06:08;;;;;;;16.42;8.00;;;;;;;22.51;69.24;100517.38;1796008;79;21024;-82
2021/07/10 04:08:36;;;;;;;13.95;8.10;;;;;;;22.80;66.45;100513.18;1795587;79;21124;-83
2021/07/10 04:11:04;;;;;;;17.67;7.65;;;;;;;23.09;64.01;100509.92;1795792;79;21075;-82
2021/07/10 04:13:31;;;;;;;16.70;7.72;;;;;;;23.40;62.12;100508.70;1795677;79;21598;-85
2021/07/10 04:16:00;;;;;;;14.63;7.40;;;;;;;23.71;61.43;100503.38;1795980;78;21617;-80
2021/07/10 04:18:28;;;;;;;19.52;8.18;;;;;;;24.00;60.90;100504.42;1806144;78;21071;-83
2021/07/10 04:20:55;;;;;;;19.57;7.65;;;;;;;24.28;59.57;100503.33;1814929;78;21146;-84
2021/07/10 04:23:24;;;;;;;12.63;7.40;;;;;;;24.58;57.58;100505.66;1820058;78;21212;-87
2021/07/10 04:25:54;;;;;;;18.40;7.37;;;;;;;24.82;57.04;100492.63;1804408;78;21063;-84
2021/07/10 04:28:21;;;;;;;14.90;7.12;;;;;;;25.06;55.41;100491.39;1813014;78;21009;-85
2021/07/10 04:30:49;;;;;;;19.35;7.08;;;;;;;25.23;55.30;100497.44;1746184;81;21119;-80
2021/07/10 04:33:16;;;;;;;16.05;6.42;;;;;;;25.41;53.83;100491.33;1740137;81;21123;-80
2021/07/10 04:35:45;;;;;;;17.75;7.33;;;;;;;25.57;52.32;100488.89;1765971;80;21008;-80
2021/07/10 04:38:12;;;;;;;16.62;7.60;;;;;;;25.74;51.45;100491.32;1780064;80;21004;-82
2021/07/10 04:40:39;;;;;;;12.88;5.87;;;;;;;25.91;51.34;100488.41;1777660;80;21032;-83
2021/07/10 04:43:06;;;;;;;17.23;6.85;;;;;;;26.05;50.37;100485.22;1782566;80;21092;-85
2021/07/10 04:45:32;;;;;;;14.75;5.85;;;;;;;26.18;49.79;100481.33;1777590;80;21118;-80
2021/07/10 04:48:00;;;;;;;13.45;6.45;;;;;;;26.29;49.64;100478.43;1751971;81;21093;-86
2021/07/10 04:50:27;;;;;;;17.10;6.80;;;;;;;26.46;49.11;100481.69;1744769;81;21044;-80
2021/07/10 04:52:53;;;;;;;18.15;7.00;;;;;;;26.64;48.61;100479.53;1740863;81;21548;-80
2021/07/10 04:55:21;;;;;;;17.80;5.87;;;;;;;26.76;48.42;100474.28;1735953;82;21065;-80
2021/07/10 04:57:48;;;;;;;22.62;7.28;;;;;;;26.89;48.15;100478.77;1733479;82;21136;-80
2021/07/10 05:00:17;;;;;;;25.45;6.83;;;;;;;27.08;48.08;100476.92;1744857;80;21587;-83
2021/07/10 05:02:44;;;;;;;22.95;7.53;;;;;;;27.32;46.98;100474.46;1736721;81;21115;-85
2021/07/10 05:05:12;;;;;;;21.45;7.00;;;;;;;27.55;46.88;100473.95;1736844;81;21110;-85
2021/07/10 05:07:40;;;;;;;25.12;7.20;;;;;;;27.73;46.47;100467.98;1745119;80;21841;-85
2021/07/10 05:10:09;;;;;;;23.42;7.62;;;;;;;27.90;45.41;100473.52;1758669;80;21140;-83
2021/07/10 05:12:36;;;;;;;23.52;7.50;;;;;;;27.94;45.44;100474.91;1801700;79;21001;-86
2021/07/10 05:15:04;;;;;;;19.15;7.17;;;;;;;27.98;45.10;100474.93;1736821;82;21073;-83
2021/07/10 05:17:31;;;;;;;20.45;6.42;;;;;;;27.96;45.38;100474.23;1749400;81;21508;-86
2021/07/10 05:19:57;;;;;;;18.87;6.67;;;;;;;28.08;45.16;100471.58;1731366;82;21077;-86
2021/07/10 05:22:25;;;;;;;22.55;7.37;;;;;;;28.31;45.43;100463.72;1735927;81;21052;-86
2021/07/10 05:24:53;;;;;;;14.73;6.45;;;;;;;28.60;44.88;100465.20;1738018;81;21066;-86
2021/07/10 05:27:21;;;;;;;16.73;6.60;;;;;;;28.88;42.98;100460.33;1738703;81;21132;-83
2021/07/10 05:29:48;;;;;;;27.10;7.58;;;;;;;29.12;43.20;100466.81;1730623;81;21068;-86
2021/07/10 05:32:15;;;;;;;29.00;9.13;;;;;;;29.41;42.79;100459.52;1751612;81;21061;-84
2021/07/10 05:34:43;;;;;;;26.27;8.83;;;;;;;29.70;42.02;100464.40;1747332;80;21062;-84
2021/07/10 05:37:09;;;;;;;22.37;8.15;;;;;;;29.90;40.84;100465.70;1769403;80;21551;-84
2021/07/10 05:39:38;;;;;;;58.08;12.37;;;;;;;30.05;40.88;100465.84;1751007;80;21045;-85
2021/07/10 05:42:06;;;;;;;32.63;8.55;;;;;;;30.26;40.70;100467.98;1768908;80;21126;-85
2021/07/10 05:44:33;;;;;;;26.87;7.87;;;;;;;30.41;39.72;100467.23;1765489;80;21061;-85
2021/07/10 05:47:00;;;;;;;23.57;7.92;;;;;;;30.40;39.23;100466.38;1747747;81;21889;-86
2021/07/10 05:49:27;;;;;;;20.60;7.80;;;;;;;30.38;39.75;100467.08;1728173;81;22072;-84
2021/07/10 05:51:56;;;;;;;19.60;7.22;;;;;;;30.51;39.71;100465.15;1754575;81;21015;-85
2021/07/10 05:54:24;;;;;;;38.50;10.23;;;;;;;30.65;38.42;100465.73;1733860;82;21043;-86
2021/07/10 05:56:52;;;;;;;19.23;6.40;;;;;;;30.79;39.55;100463.28;1736183;81;22309;-86
2021/07/10 05:59:21;;;;;;;18.95;7.42;;;;;;;30.95;38.23;100459.11;1748697;81;21085;-85
2021/07/10 06:01:48;;;;;;;15.75;6.78;;;;;;;31.16;38.04;100458.42;1763338;81;21105;-85
2021/07/10 06:04:16;;;;;;;16.80;6.50;;;;;;;31.42;37.17;100455.83;1744801;80;21086;-87
2021/07/10 06:06:46;;;;;;;12.80;6.17;;;;;;;31.68;36.99;100462.19;1795049;78;21549;-84
2021/07/10 06:09:13;;;;;;;20.52;6.33;;;;;;;31.92;36.25;100457.84;1821899;78;21045;-86
2021/07/10 06:11:40;;;;;;;14.60;5.70;;;;;;;32.11;35.80;100461.05;1820602;78;21133;-84
2021/07/10 06:14:12;;;;;;;19.25;6.87;;;;;;;32.23;35.30;100455.44;1825682;78;21089;-84
2021/07/10 06:16:37;;;;;;;35.10;6.65;;;;;;;32.39;34.89;100456.61;1816490;78;21039;-87
2021/07/10 06:19:05;;;;;;;26.40;6.12;;;;;;;32.23;34.37;100460.05;1817545;78;21328;-86
2021/07/10 06:21:32;;;;;;;23.70;7.95;;;;;;;32.24;34.62;100459.88;1793760;79;22183;-86
2021/07/10 06:23:58;;;;;;;26.55;6.65;;;;;;;32.37;34.25;100457.31;1793122;80;21109;-87
2021/07/10 06:26:25;;;;;;;15.45;5.80;;;;;;;32.50;33.97;100457.97;1814036;78;21082;-86
2021/07/10 06:28:52;;;;;;;11.25;5.62;;;;;;;32.71;33.07;100462.63;1804104;78;21066;-86
2021/07/10 06:31:19;;;;;;;14.60;5.55;;;;;;;32.96;32.86;100456.80;1813294;78;21038;-84
2021/07/10 06:33:46;;;;;;;14.00;5.58;;;;;;;32.79;31.87;100459.80;1809684;78;21027;-86
2021/07/10 06:36:14;;;;;;;10.18;5.00;;;;;;;32.59;32.45;100453.28;1806949;78;21098;-85
2021/07/10 06:38:41;;;;;;;11.93;4.80;;;;;;;32.69;32.42;100451.07;1805876;78;21042;-84
2021/07/10 06:41:12;;;;;;;19.90;5.90;;;;;;;32.88;31.23;100452.86;1816987;78;21589;-87
2021/07/10 06:43:39;;;;;;;9.88;4.20;;;;;;;32.96;30.73;100452.19;1807908;78;21097;-85
2021/07/10 06:46:09;;;;;;;14.05;4.90;;;;;;;33.02;29.74;100451.94;1807444;78;21070;-86
2021/07/10 06:48:36;;;;;;;13.78;4.92;;;;;;;33.19;31.22;100456.09;1804196;78;21081;-86
2021/07/10 06:51:04;;;;;;;7.33;4.33;;;;;;;33.33;30.65;100455.68;1778373;79;21067;-88
2021/07/10 06:53:32;;;;;;;9.27;4.37;;;;;;;33.51;29.10;100456.55;1798712;78;21148;-86
2021/07/10 06:55:59;;;;;;;6.55;4.20;;;;;;;33.51;27.84;100460.66;1823366;78;21006;-85
2021/07/10 06:58:26;;;;;;;6.37;4.25;;;;;;;33.35;28.44;100460.42;1801228;78;21034;-85
2021/07/10 07:00:53;;;;;;;16.40;4.92;;;;;;;33.38;28.37;100462.78;1799214;78;21498;-86
2021/07/10 07:03:20;;;;;;;11.45;4.28;;;;;;;33.29;28.33;100463.09;1825869;78;21066;-86
2021/07/10 07:05:47;;;;;;;9.95;4.05;;;;;;;33.23;28.15;100462.02;1821890;78;21097;-87
2021/07/10 07:08:14;;;;;;;9.13;4.22;;;;;;;33.29;27.53;100467.19;1807652;78;21206;-86
2021/07/10 07:10:41;;;;;;;12.95;4.50;;;;;;;33.32;27.90;100460.00;1824769;78;21058;-88
2021/07/10 07:13:08;;;;;;;6.45;3.80;;;;;;;33.49;28.17;100453.17;1817645;78;21181;-86
2021/07/10 07:15:35;;;;;;;6.60;3.52;;;;;;;33.48;27.54;100458.33;1826190;78;21051;-85
2021/07/10 07:18:04;;;;;;;12.05;4.15;;;;;;;33.57;26.46;100457.66;1826316;78;21759;-84
2021/07/10 07:20:31;;;;;;;12.88;4.95;;;;;;;33.66;26.90;100458.36;1825704;78;21070;-86
2021/07/10 07:22:59;;;;;;;12.78;4.92;;;;;;;34.01;27.90;100460.05;1822287;78;21169;-85
2021/07/10 07:25:25;;;;;;;13.35;4.67;;;;;;;34.51;27.46;100457.64;1793967;80;21096;-88
2021/07/10 07:27:53;;;;;;;12.75;4.72;;;;;;;34.97;26.53;100461.02;1814835;78;21054;-88
2021/07/10 07:30:20;;;;;;;9.98;4.87;;;;;;;35.17;26.19;100453.70;1826439;78;21046;-86
2021/07/10 07:32:48;;;;;;;9.68;4.20;;;;;;;35.08;26.01;100446.72;1825981;78;21010;-86
2021/07/10 07:35:15;;;;;;;10.65;4.28;;;;;;;34.95;25.21;100448.08;1809890;78;21596;-86
2021/07/10 07:37:42;;;;;;;8.23;4.67;;;;;;;34.77;25.43;100450.91;1793561;80;22076;-88
2021/07/10 07:40:14;;;;;;;10.63;4.70;;;;;;;34.61;25.98;100449.40;1793176;79;21652;-85
2021/07/10 07:42:42;;;;;;;11.83;4.90;;;;;;;34.62;26.49;100451.61;1794662;79;21086;-87
2021/07/10 07:45:11;;;;;;;7.08;3.95;;;;;;;34.82;26.52;100452.48;1806467;78;21022;-87
2021/07/10 07:47:41;;;;;;;6.20;3.67;;;;;;;35.18;26.28;100445.83;1805193;78;21561;-88
2021/07/10 07:50:10;;;;;;;7.20;4.30;;;;;;;35.68;25.69;100427.05;1794729;78;21492;-88
2021/07/10 07:52:37;;;;;;;6.45;4.03;;;;;;;35.92;24.27;100443.30;1784463;79;21155;-89
2021/07/10 07:55:07;;;;;;;6.45;4.10;;;;;;;35.70;24.73;100445.45;1787358;79;21020;-87
2021/07/10 07:57:33;;;;;;;10.60;4.65;;;;;;;35.58;24.66;100458.09;1807081;79;21075;-87
2021/07/10 08:00:00;;;;;;;10.43;4.58;;;;;;;35.65;24.98;100453.48;1785980;79;21017;-88
2021/07/10 08:02:27;;;;;;;7.58;4.80;;;;;;;35.56;25.20;100458.83;1797439;79;21090;-87
2021/07/10 08:04:54;;;;;;;6.62;4.20;;;;;;;35.70;24.90;100451.47;1790165;79;21460;-88
2021/07/10 08:07:21;;;;;;;8.88;4.50;;;;;;;35.99;24.83;100455.61;1796788;79;21693;-86
2021/07/10 08:09:48;;;;;;;13.18;4.37;;;;;;;36.18;24.56;100454.41;1804864;79;21032;-87
2021/07/10 08:12:15;;;;;;;6.65;4.65;;;;;;;36.19;24.83;100457.45;1797493;79;21071;-87
2021/07/10 08:14:43;;;;;;;13.80;4.50;;;;;;;35.99;24.90;100459.72;1785134;80;21531;-85
2021/07/10 08:17:10;;;;;;;7.00;4.33;;;;;;;35.95;25.08;100458.46;1796530;79;21017;-88
2021/07/10 08:19:38;;;;;;;9.10;4.22;;;;;;;35.50;25.06;100461.08;1809031;79;21515;-89
2021/07/10 08:22:07;;;;;;;12.20;4.83;;;;;;;34.96;25.39;100462.09;1816623;79;21662;-88
2021/07/10 08:24:35;;;;;;;6.08;4.17;;;;;;;34.96;25.20;100458.81;1816134;79;21040;-88
2021/07/10 08:27:02;;;;;;;11.55;4.40;;;;;;;35.05;24.88;100456.20;1817124;79;21083;-87
2021/07/10 08:29:29;;;;;;;11.70;4.05;;;;;;;35.17;24.49;100448.23;1809228;79;21028;-89
2021/07/10 08:31:58;;;;;;;8.43;4.15;;;;;;;35.16;24.82;100454.77;1798380;79;21119;-89
2021/07/10 08:34:30;;;;;;;13.48;4.30;;;;;;;35.08;25.01;100456.30;1799887;79;21503;-86
2021/07/10 08:36:57;;;;;;;;;;;;;;;35.24;24.42;100456.44;1794949;79;21002;-88
2021/07/10 08:39:25;;;;;;;7.37;3.70;;;;;;;35.35;24.54;100454.44;1786198;79;21134;-87
2021/07/10 08:41:54;;;;;;;6.22;3.80;;;;;;;35.58;24.58;100454.52;1786137;79;20996;-87
2021/07/10 08:44:22;;;;;;;8.05;4.25;;;;;;;35.96;24.18;100445.09;1804248;79;20962;-86
2021/07/10 08:46:49;;;;;;;10.08;4.35;;;;;;;36.15;24.24;100439.24;1794638;79;21044;-89
2021/07/10 08:49:16;;;;;;;4.35;3.65;;;;;;;36.35;23.81;100437.76;1740777;79;21175;-89
2021/07/10 08:51:46;;;;;;;7.40;4.37;;;;;;;36.53;23.35;100437.87;1810456;79;21120;-87
2021/07/10 08:54:16;;;;;;;7.20;3.98;;;;;;;36.76;23.88;100435.12;1797255;79;21522;-88
2021/07/10 08:56:45;;;;;;;7.25;4.05;;;;;;;37.01;24.00;100435.69;1798784;79;21092;-87
2021/07/10 08:59:13;;;;;;;12.93;4.90;;;;;;;36.99;23.25;100435.90;1790367;79;21079;-88
2021/07/10 09:01:40;;;;;;;6.40;4.00;;;;;;;36.73;23.53;100433.66;1780903;79;21029;-88
2021/07/10 09:04:07;;;;;;;11.73;4.35;;;;;;;36.55;23.95;100431.63;1778696;79;21468;-87
2021/07/10 09:06:35;;;;;;;8.45;4.05;;;;;;;36.35;24.41;100428.16;1805956;79;21047;-86
2021/07/10 09:09:03;;;;;;;11.88;4.47;;;;;;;36.32;24.35;100425.33;1776329;79;20992;-88
2021/07/10 09:11:32;;;;;;;5.28;4.00;;;;;;;36.50;24.94;100420.48;1762880;80;27580;-88
2021/07/10 09:13:59;;;;;;;19.15;4.72;;;;;;;36.80;24.65;100425.39;1786562;79;21634;-87
2021/07/10 09:16:33;;;;;;;10.43;4.03;;;;;;;36.87;24.08;100428.09;1785129;79;21038;-87
2021/07/10 09:19:09;;;;;;;13.32;4.22;;;;;;;36.49;24.04;100431.16;1776457;79;21020;-87
2021/07/10 09:21:46;;;;;;;8.35;4.00;;;;;;;36.04;24.53;100427.55;1789330;79;21016;-87
2021/07/10 09:24:17;;;;;;;8.78;4.20;;;;;;;35.76;24.59;100427.87;1777071;79;20977;-88
2021/07/10 09:26:49;;;;;;;6.47;3.95;;;;;;;35.80;25.15;100429.09;1792812;79;21142;-88
2021/07/10 09:29:19;;;;;;;7.37;4.37;;;;;;;35.78;25.50;100425.76;1789694;79;22201;-87
2021/07/10 09:31:57;;;;;;;6.78;4.17;;;;;;;35.67;25.07;100423.14;1783942;79;22122;-85
2021/07/10 09:34:36;;;;;;;9.90;4.85;;;;;;;35.54;25.52;100429.98;1722219;82;20994;-87
2021/07/10 09:37:07;;;;;;;8.63;4.33;;;;;;;35.71;24.79;100422.50;1732311;82;21583;-87
2021/07/10 09:39:41;;;;;;;11.25;4.17;;;;;;;35.92;24.64;100420.54;1780461;79;21055;-88
2021/07/10 09:42:08;;;;;;;8.93;4.37;;;;;;;36.13;24.31;100414.78;1789760;79;21115;-88
2021/07/10 09:44:48;;;;;;;8.93;4.15;;;;;;;36.34;23.80;100418.27;1783289;79;21049;-88
2021/07/10 09:47:19;;;;;;;5.72;3.72;;;;;;;36.59;23.82;100421.64;1803153;79;21021;-87
2021/07/10 09:49:46;;;;;;;7.90;4.20;;;;;;;36.61;23.61;100416.78;1784393;79;21522;-88
2021/07/10 09:52:16;;;;;;;8.05;4.42;;;;;;;36.55;23.93;100415.71;1733391;82;21078;-87
2021/07/10 09:54:50;;;;;;;8.85;4.62;;;;;;;36.49;23.69;100414.70;1777454;79;21104;-88
2021/07/10 09:57:22;;;;;;;7.10;4.10;;;;;;;36.67;23.63;100413.13;1795955;79;20998;-87
2021/07/10 09:59:55;;;;;;;6.53;4.12;;;;;;;36.94;23.22;100410.49;1777775;79;21052;-86
2021/07/10 10:02:25;;;;;;;6.78;3.75;;;;;;;36.90;22.91;100406.54;1734669;82;21117;-87
2021/07/10 10:04:55;;;;;;;4.00;3.55;;;;;;;36.85;23.13;100396.73;1733987;82;21058;-89
2021/07/10 10:07:22;;;;;;;9.13;4.17;;;;;;;37.08;22.86;100404.92;1692646;82;21764;-86
2021/07/10 10:09:58;;;;;;;5.35;4.03;;;;;;;36.87;22.92;100390.50;1713329;82;21073;-88
2021/07/10 10:12:26;;;;;;;5.33;3.85;;;;;;;36.55;23.83;100405.58;1782860;79;21448;-88
2021/07/10 10:14:57;;;;;;;;;;;;;;;36.54;23.59;100399.80;1788400;79;21065;-89
2021/07/10 10:17:25;;;;;;;11.08;4.30;;;;;;;36.20;23.68;100395.56;1777104;79;20222;-86
2021/07/10 10:19:54;;;;;;;10.32;4.15;;;;;;;36.05;24.07;100395.83;1783190;79;21093;-84
2021/07/10 10:22:21;;;;;;;5.12;3.85;;;;;;;36.09;23.75;100394.31;1800526;79;21598;-86
2021/07/10 10:24:51;;;;;;;5.53;3.87;;;;;;;36.26;23.82;100391.09;1790414;79;21049;-90
2021/07/10 10:27:20;;;;;;;7.03;4.00;;;;;;;36.25;23.89;100387.52;1792466;79;21024;-87
2021/07/10 10:29:50;;;;;;;9.63;3.98;;;;;;;36.21;24.02;100381.31;1793351;79;21005;-88
2021/07/10 10:32:19;;;;;;;;;;;;;;;36.22;24.04;100376.16;1765247;79;21198;-87
2021/07/10 10:34:52;;;;;;;7.95;4.12;;;;;;;36.21;24.46;100377.20;1782548;79;20385;-87
2021/07/10 10:37:19;;;;;;;11.68;4.40;;;;;;;36.25;24.21;100375.71;1799214;78;21443;-87
2021/07/10 10:39:46;;;;;;;8.93;4.33;;;;;;;35.87;24.06;100384.73;1790862;79;20998;-87
2021/07/10 10:42:23;;;;;;;9.43;4.10;;;;;;;35.44;24.70;100385.24;1783598;79;21507;-88
2021/07/10 10:44:54;;;;;;;8.23;4.72;;;;;;;35.35;24.87;100371.47;1719408;82;21199;-91
2021/07/10 10:47:25;;;;;;;4.70;3.83;;;;;;;35.50;25.00;100379.75;1797105;79;21042;-88
2021/07/10 10:50:03;;;;;;;8.63;4.20;;;;;;;35.36;24.64;100366.29;1799641;79;20988;-88
2021/07/10 10:52:47;;;;;;;9.90;4.28;;;;;;;35.49;25.41;100369.00;1791999;79;21131;-88
2021/07/10 10:55:32;;;;;;;7.17;4.37;;;;;;;35.75;24.95;100372.75;1808377;79;21036;-86
2021/07/10 10:58:18;;;;;;;6.67;4.20;;;;;;;35.35;24.81;100370.09;1787497;79;21175;-89
2021/07/10 11:00:51;;;;;;;12.28;4.60;;;;;;;35.22;24.55;100371.78;1789526;77;21091;-88
2021/07/10 11:03:22;;;;;;;6.50;4.08;;;;;;;35.16;24.86;100369.92;1807081;79;21016;-92
2021/07/10 11:05:54;;;;;;;9.60;4.12;;;;;;;35.39;25.02;100366.72;1786546;79;21884;-90
2021/07/10 11:08:32;;;;;;;7.15;4.10;;;;;;;35.87;24.88;100365.55;1808638;79;21081;-89
2021/07/10 11:11:04;;;;;;;8.35;4.20;;;;;;;36.31;23.82;100362.50;1785514;79;21171;-88
2021/07/10 11:13:38;;;;;;;6.97;4.25;;;;;;;36.28;23.37;100361.55;1794459;79;21047;-89
2021/07/10 11:16:12;;;;;;;8.38;4.20;;;;;;;36.16;23.53;100350.98;1800447;79;21044;-87
2021/07/10 11:19:03;;;;;;;6.37;4.17;;;;;;;36.23;23.84;100358.64;1803609;79;21004;-87
2021/07/10 11:21:48;;;;;;;10.03;4.33;;;;;;;36.13;23.34;100355.84;1790763;79;21071;-91
2021/07/10 11:24:24;;;;;;;6.28;4.00;;;;;;;35.91;23.81;100350.33;1797329;78;21139;-89
2021/07/10 11:27:01;;;;;;;5.55;3.75;;;;;;;35.99;24.11;100347.36;1809593;79;21029;-87
2021/07/10 11:29:39;;;;;;;6.90;4.28;;;;;;;36.36;23.34;100347.59;1794888;79;21570;-88